sensor_id;sensor_type;location;lat;lon;timestamp;P1;durP1;ratioP1;P2;durP2;ratioP2
3698;SDS011;1865;50.918;7.092;2023-04-25T00:00:41;12.97;;;3.63;;
3698;SDS011;1865;50.918;7.092;2023-04-25T00:03:06;16.77;;;4.40;;
3698;SDS011;1865;50.918;7.092;2023-04-25T00:05:33;12.10;;;3.63;;
3698;SDS011;1865;50.918;7.092;2023-04-25T00:08:02;16.93;;;4.30;;
3698;SDS011;1865;50.918;7.092;2023-04-25T00:10:28;14.00;;;4.50;;
3698;SDS011;1865;50.918;7.092;2023-04-25T00:12:53;12.43;;;3.80;;
3698;SDS011;1865;50.918;7.092;2023-04-25T00:15:19;11.70;;;4.00;;
3698;SDS011;1865;50.918;7.092;2023-04-25T00:17:44;19.00;;;3.90;;
3698;SDS011;1865;50.918;7.092;2023-04-25T00:20:10;16.80;;;4.70;;
3698;SDS011;1865;50.918;7.092;2023-04-25T00:22:36;12.80;;;3.97;;
3698;SDS011;1865;50.918;7.092;2023-04-25T00:25:03;16.00;;;4.03;;
3698;SDS011;1865;50.918;7.092;2023-04-25T00:27:30;15.90;;;4.60;;
3698;SDS011;1865;50.918;7.092;2023-04-25T00:29:55;11.67;;;3.40;;
3698;SDS011;1865;50.918;7.092;2023-04-25T00:32:21;15.00;;;4.77;;
3698;SDS011;1865;50.918;7.092;2023-04-25T00:34:46;16.20;;;3.93;;
3698;SDS011;1865;50.918;7.092;2023-04-25T00:37:12;18.77;;;4.20;;
3698;SDS011;1865;50.918;7.092;2023-04-25T00:39:37;20.47;;;4.57;;
3698;SDS011;1865;50.918;7.092;2023-04-25T00:42:03;17.77;;;4.77;;
3698;SDS011;1865;50.918;7.092;2023-04-25T00:44:29;17.20;;;4.63;;
3698;SDS011;1865;50.918;7.092;2023-04-25T00:46:57;11.90;;;4.00;;
3698;SDS011;1865;50.918;7.092;2023-04-25T00:49:22;10.37;;;4.30;;
3698;SDS011;1865;50.918;7.092;2023-04-25T00:51:48;14.23;;;4.10;;
3698;SDS011;1865;50.918;7.092;2023-04-25T00:54:14;19.33;;;4.20;;
3698;SDS011;1865;50.918;7.092;2023-04-25T00:56:40;14.37;;;3.80;;
3698;SDS011;1865;50.918;7.092;2023-04-25T00:59:06;16.60;;;4.43;;
3698;SDS011;1865;50.918;7.092;2023-04-25T01:01:33;18.50;;;4.43;;
3698;SDS011;1865;50.918;7.092;2023-04-25T01:03:59;15.50;;;4.17;;
3698;SDS011;1865;50.918;7.092;2023-04-25T01:06:26;20.87;;;5.70;;
3698;SDS011;1865;50.918;7.092;2023-04-25T01:08:52;18.60;;;4.20;;
3698;SDS011;1865;50.918;7.092;2023-04-25T01:11:18;14.23;;;4.20;;
3698;SDS011;1865;50.918;7.092;2023-04-25T01:13:44;21.27;;;4.67;;
3698;SDS011;1865;50.918;7.092;2023-04-25T01:16:10;19.43;;;4.40;;
3698;SDS011;1865;50.918;7.092;2023-04-25T01:18:36;20.13;;;4.63;;
3698;SDS011;1865;50.918;7.092;2023-04-25T01:21:07;15.50;;;4.30;;
3698;SDS011;1865;50.918;7.092;2023-04-25T01:23:34;17.03;;;3.57;;
3698;SDS011;1865;50.918;7.092;2023-04-25T01:26:01;17.90;;;4.60;;
3698;SDS011;1865;50.918;7.092;2023-04-25T01:28:27;13.60;;;3.80;;
3698;SDS011;1865;50.918;7.092;2023-04-25T01:30:53;12.20;;;3.83;;
3698;SDS011;1865;50.918;7.092;2023-04-25T01:33:19;12.57;;;3.80;;
3698;SDS011;1865;50.918;7.092;2023-04-25T01:35:46;14.67;;;4.03;;
3698;SDS011;1865;50.918;7.092;2023-04-25T01:38:12;16.80;;;4.97;;
3698;SDS011;1865;50.918;7.092;2023-04-25T01:40:38;17.33;;;4.50;;
3698;SDS011;1865;50.918;7.092;2023-04-25T01:43:05;13.00;;;3.73;;
3698;SDS011;1865;50.918;7.092;2023-04-25T01:45:31;12.43;;;4.03;;
3698;SDS011;1865;50.918;7.092;2023-04-25T01:47:57;17.53;;;4.60;;
3698;SDS011;1865;50.918;7.092;2023-04-25T01:50:24;18.27;;;5.10;;
3698;SDS011;1865;50.918;7.092;2023-04-25T01:52:50;20.23;;;4.80;;
3698;SDS011;1865;50.918;7.092;2023-04-25T01:55:16;16.73;;;4.07;;
3698;SDS011;1865;50.918;7.092;2023-04-25T01:57:41;30.03;;;4.50;;
3698;SDS011;1865;50.918;7.092;2023-04-25T02:00:07;13.23;;;4.10;;
3698;SDS011;1865;50.918;7.092;2023-04-25T02:02:34;14.80;;;4.50;;
3698;SDS011;1865;50.918;7.092;2023-04-25T02:05:00;10.87;;;4.17;;
3698;SDS011;1865;50.918;7.092;2023-04-25T02:07:26;17.97;;;4.33;;
3698;SDS011;1865;50.918;7.092;2023-04-25T02:09:52;16.47;;;3.80;;
3698;SDS011;1865;50.918;7.092;2023-04-25T02:12:17;12.77;;;3.70;;
3698;SDS011;1865;50.918;7.092;2023-04-25T02:14:43;16.50;;;4.23;;
3698;SDS011;1865;50.918;7.092;2023-04-25T02:17:08;21.97;;;4.93;;
3698;SDS011;1865;50.918;7.092;2023-04-25T02:19:34;23.80;;;4.00;;
3698;SDS011;1865;50.918;7.092;2023-04-25T02:21:59;15.47;;;3.93;;
3698;SDS011;1865;50.918;7.092;2023-04-25T02:24:25;13.87;;;4.93;;
3698;SDS011;1865;50.918;7.092;2023-04-25T02:26:52;15.30;;;3.67;;
3698;SDS011;1865;50.918;7.092;2023-04-25T02:29:19;18.67;;;4.13;;
3698;SDS011;1865;50.918;7.092;2023-04-25T02:31:45;14.00;;;4.03;;
3698;SDS011;1865;50.918;7.092;2023-04-25T02:34:10;15.40;;;4.17;;
3698;SDS011;1865;50.918;7.092;2023-04-25T02:36:36;16.60;;;3.90;;
3698;SDS011;1865;50.918;7.092;2023-04-25T02:39:01;17.80;;;4.13;;
3698;SDS011;1865;50.918;7.092;2023-04-25T02:41:28;12.97;;;4.60;;
3698;SDS011;1865;50.918;7.092;2023-04-25T02:43:53;18.10;;;4.20;;
3698;SDS011;1865;50.918;7.092;2023-04-25T02:46:19;21.87;;;4.40;;
3698;SDS011;1865;50.918;7.092;2023-04-25T02:48:45;13.17;;;4.03;;
3698;SDS011;1865;50.918;7.092;2023-04-25T02:51:10;14.30;;;4.40;;
3698;SDS011;1865;50.918;7.092;2023-04-25T02:53:36;15.47;;;4.47;;
3698;SDS011;1865;50.918;7.092;2023-04-25T02:56:01;10.17;;;3.70;;
3698;SDS011;1865;50.918;7.092;2023-04-25T02:58:27;13.17;;;3.80;;
3698;SDS011;1865;50.918;7.092;2023-04-25T03:00:53;11.83;;;4.50;;
3698;SDS011;1865;50.918;7.092;2023-04-25T03:03:19;12.77;;;3.87;;
3698;SDS011;1865;50.918;7.092;2023-04-25T03:05:47;12.43;;;3.77;;
3698;SDS011;1865;50.918;7.092;2023-04-25T03:08:16;11.23;;;3.53;;
3698;SDS011;1865;50.918;7.092;2023-04-25T03:10:42;17.97;;;4.27;;
3698;SDS011;1865;50.918;7.092;2023-04-25T03:13:08;13.40;;;3.90;;
3698;SDS011;1865;50.918;7.092;2023-04-25T03:15:34;19.00;;;3.73;;
3698;SDS011;1865;50.918;7.092;2023-04-25T03:18:00;23.93;;;3.97;;
3698;SDS011;1865;50.918;7.092;2023-04-25T03:20:26;14.80;;;3.70;;
3698;SDS011;1865;50.918;7.092;2023-04-25T03:22:52;19.93;;;3.80;;
3698;SDS011;1865;50.918;7.092;2023-04-25T03:25:17;9.53;;;3.50;;
3698;SDS011;1865;50.918;7.092;2023-04-25T03:27:43;18.23;;;3.90;;
3698;SDS011;1865;50.918;7.092;2023-04-25T03:30:09;14.60;;;3.57;;
3698;SDS011;1865;50.918;7.092;2023-04-25T03:32:35;17.67;;;4.27;;
3698;SDS011;1865;50.918;7.092;2023-04-25T03:35:00;13.87;;;3.70;;
3698;SDS011;1865;50.918;7.092;2023-04-25T03:37:26;11.73;;;3.73;;
3698;SDS011;1865;50.918;7.092;2023-04-25T03:39:51;9.50;;;3.30;;
3698;SDS011;1865;50.918;7.092;2023-04-25T03:42:17;8.40;;;2.60;;
3698;SDS011;1865;50.918;7.092;2023-04-25T03:44:43;12.10;;;3.20;;
3698;SDS011;1865;50.918;7.092;2023-04-25T03:47:08;8.37;;;2.93;;
3698;SDS011;1865;50.918;7.092;2023-04-25T03:49:34;7.30;;;2.70;;
3698;SDS011;1865;50.918;7.092;2023-04-25T03:52:00;9.50;;;2.87;;
3698;SDS011;1865;50.918;7.092;2023-04-25T03:54:26;11.47;;;2.80;;
3698;SDS011;1865;50.918;7.092;2023-04-25T03:56:51;11.97;;;3.23;;
3698;SDS011;1865;50.918;7.092;2023-04-25T03:59:17;12.90;;;2.90;;
3698;SDS011;1865;50.918;7.092;2023-04-25T04:01:42;19.90;;;3.00;;
3698;SDS011;1865;50.918;7.092;2023-04-25T04:04:08;9.93;;;3.13;;
3698;SDS011;1865;50.918;7.092;2023-04-25T04:06:33;10.40;;;3.10;;
3698;SDS011;1865;50.918;7.092;2023-04-25T04:08:59;12.03;;;3.30;;
3698;SDS011;1865;50.918;7.092;2023-04-25T04:11:24;13.83;;;2.90;;
3698;SDS011;1865;50.918;7.092;2023-04-25T04:13:50;10.17;;;4.20;;
3698;SDS011;1865;50.918;7.092;2023-04-25T04:16:16;13.23;;;3.40;;
3698;SDS011;1865;50.918;7.092;2023-04-25T04:18:42;12.37;;;3.03;;
3698;SDS011;1865;50.918;7.092;2023-04-25T04:21:07;11.53;;;4.17;;
3698;SDS011;1865;50.918;7.092;2023-04-25T04:23:33;10.67;;;3.40;;
3698;SDS011;1865;50.918;7.092;2023-04-25T04:25:58;14.43;;;3.20;;
3698;SDS011;1865;50.918;7.092;2023-04-25T04:28:24;13.70;;;3.53;;
3698;SDS011;1865;50.918;7.092;2023-04-25T04:30:51;16.67;;;4.10;;
3698;SDS011;1865;50.918;7.092;2023-04-25T04:33:17;16.43;;;4.27;;
3698;SDS011;1865;50.918;7.092;2023-04-25T04:35:46;13.00;;;3.70;;
3698;SDS011;1865;50.918;7.092;2023-04-25T04:38:12;15.13;;;4.17;;
3698;SDS011;1865;50.918;7.092;2023-04-25T04:40:40;11.20;;;4.30;;
3698;SDS011;1865;50.918;7.092;2023-04-25T04:43:07;19.90;;;5.20;;
3698;SDS011;1865;50.918;7.092;2023-04-25T04:45:35;12.70;;;4.20;;
3698;SDS011;1865;50.918;7.092;2023-04-25T04:48:03;19.40;;;5.63;;
3698;SDS011;1865;50.918;7.092;2023-04-25T04:50:30;16.37;;;4.70;;
3698;SDS011;1865;50.918;7.092;2023-04-25T04:52:57;16.20;;;4.60;;
3698;SDS011;1865;50.918;7.092;2023-04-25T04:55:23;13.27;;;5.47;;
3698;SDS011;1865;50.918;7.092;2023-04-25T04:57:48;12.97;;;4.83;;
3698;SDS011;1865;50.918;7.092;2023-04-25T05:00:14;21.43;;;4.87;;
3698;SDS011;1865;50.918;7.092;2023-04-25T05:02:40;16.13;;;5.63;;
3698;SDS011;1865;50.918;7.092;2023-04-25T05:05:06;17.57;;;5.73;;
3698;SDS011;1865;50.918;7.092;2023-04-25T05:07:32;24.43;;;5.20;;
3698;SDS011;1865;50.918;7.092;2023-04-25T05:09:58;16.37;;;5.63;;
3698;SDS011;1865;50.918;7.092;2023-04-25T05:12:24;17.23;;;5.40;;
3698;SDS011;1865;50.918;7.092;2023-04-25T05:14:49;16.80;;;5.23;;
3698;SDS011;1865;50.918;7.092;2023-04-25T05:17:15;17.90;;;4.90;;
3698;SDS011;1865;50.918;7.092;2023-04-25T05:19:40;19.07;;;6.07;;
3698;SDS011;1865;50.918;7.092;2023-04-25T05:22:06;14.23;;;5.07;;
3698;SDS011;1865;50.918;7.092;2023-04-25T05:24:32;18.80;;;5.70;;
3698;SDS011;1865;50.918;7.092;2023-04-25T05:26:57;24.83;;;5.40;;
3698;SDS011;1865;50.918;7.092;2023-04-25T05:29:23;24.03;;;6.37;;
3698;SDS011;1865;50.918;7.092;2023-04-25T05:31:48;18.77;;;5.90;;
3698;SDS011;1865;50.918;7.092;2023-04-25T05:34:14;20.50;;;5.87;;
3698;SDS011;1865;50.918;7.092;2023-04-25T05:36:41;15.03;;;5.40;;
3698;SDS011;1865;50.918;7.092;2023-04-25T05:39:07;17.10;;;5.63;;
3698;SDS011;1865;50.918;7.092;2023-04-25T05:41:33;14.10;;;6.00;;
3698;SDS011;1865;50.918;7.092;2023-04-25T05:43:59;20.17;;;6.60;;
3698;SDS011;1865;50.918;7.092;2023-04-25T05:46:24;21.47;;;6.13;;
3698;SDS011;1865;50.918;7.092;2023-04-25T05:48:50;18.03;;;6.10;;
3698;SDS011;1865;50.918;7.092;2023-04-25T05:51:15;20.57;;;5.93;;
3698;SDS011;1865;50.918;7.092;2023-04-25T05:53:43;13.57;;;5.10;;
3698;SDS011;1865;50.918;7.092;2023-04-25T05:56:08;33.40;;;6.27;;
3698;SDS011;1865;50.918;7.092;2023-04-25T05:58:34;18.60;;;5.10;;
3698;SDS011;1865;50.918;7.092;2023-04-25T06:00:59;26.60;;;5.77;;
3698;SDS011;1865;50.918;7.092;2023-04-25T06:03:25;19.47;;;6.00;;
3698;SDS011;1865;50.918;7.092;2023-04-25T06:05:51;16.17;;;4.87;;
3698;SDS011;1865;50.918;7.092;2023-04-25T06:08:16;19.30;;;6.00;;
3698;SDS011;1865;50.918;7.092;2023-04-25T06:10:42;17.80;;;5.40;;
3698;SDS011;1865;50.918;7.092;2023-04-25T06:13:08;17.43;;;5.80;;
3698;SDS011;1865;50.918;7.092;2023-04-25T06:15:33;19.40;;;5.13;;
3698;SDS011;1865;50.918;7.092;2023-04-25T06:17:59;27.83;;;6.27;;
3698;SDS011;1865;50.918;7.092;2023-04-25T06:20:25;28.67;;;6.00;;
3698;SDS011;1865;50.918;7.092;2023-04-25T06:22:51;31.97;;;5.90;;
3698;SDS011;1865;50.918;7.092;2023-04-25T06:25:17;22.20;;;5.30;;
3698;SDS011;1865;50.918;7.092;2023-04-25T06:27:42;14.73;;;5.33;;
3698;SDS011;1865;50.918;7.092;2023-04-25T06:30:08;15.93;;;6.27;;
3698;SDS011;1865;50.918;7.092;2023-04-25T06:32:34;20.80;;;5.57;;
3698;SDS011;1865;50.918;7.092;2023-04-25T06:35:00;18.37;;;5.33;;
3698;SDS011;1865;50.918;7.092;2023-04-25T06:37:26;22.60;;;6.50;;
3698;SDS011;1865;50.918;7.092;2023-04-25T06:39:51;22.80;;;5.80;;
3698;SDS011;1865;50.918;7.092;2023-04-25T06:42:17;20.30;;;5.27;;
3698;SDS011;1865;50.918;7.092;2023-04-25T06:44:42;27.00;;;5.70;;
3698;SDS011;1865;50.918;7.092;2023-04-25T06:47:08;17.60;;;4.70;;
3698;SDS011;1865;50.918;7.092;2023-04-25T06:49:34;27.93;;;5.40;;
3698;SDS011;1865;50.918;7.092;2023-04-25T06:51:59;16.53;;;4.83;;
3698;SDS011;1865;50.918;7.092;2023-04-25T06:54:25;17.30;;;4.63;;
3698;SDS011;1865;50.918;7.092;2023-04-25T06:56:52;20.77;;;4.60;;
3698;SDS011;1865;50.918;7.092;2023-04-25T06:59:18;20.20;;;5.03;;
3698;SDS011;1865;50.918;7.092;2023-04-25T07:01:43;24.13;;;4.27;;
3698;SDS011;1865;50.918;7.092;2023-04-25T07:04:09;14.03;;;3.77;;
3698;SDS011;1865;50.918;7.092;2023-04-25T07:06:35;22.33;;;4.63;;
3698;SDS011;1865;50.918;7.092;2023-04-25T07:09:03;23.37;;;4.80;;
3698;SDS011;1865;50.918;7.092;2023-04-25T07:11:29;21.90;;;5.07;;
3698;SDS011;1865;50.918;7.092;2023-04-25T07:14:15;16.63;;;4.27;;
3698;SDS011;1865;50.918;7.092;2023-04-25T07:16:41;18.40;;;3.87;;
3698;SDS011;1865;50.918;7.092;2023-04-25T07:19:06;21.57;;;4.50;;
3698;SDS011;1865;50.918;7.092;2023-04-25T07:21:32;18.40;;;4.50;;
3698;SDS011;1865;50.918;7.092;2023-04-25T07:23:57;21.73;;;4.57;;
3698;SDS011;1865;50.918;7.092;2023-04-25T07:26:23;19.20;;;4.73;;
3698;SDS011;1865;50.918;7.092;2023-04-25T07:28:48;16.73;;;4.00;;
3698;SDS011;1865;50.918;7.092;2023-04-25T07:31:16;15.90;;;3.37;;
3698;SDS011;1865;50.918;7.092;2023-04-25T07:33:43;18.80;;;3.93;;
3698;SDS011;1865;50.918;7.092;2023-04-25T07:36:10;23.93;;;3.50;;
3698;SDS011;1865;50.918;7.092;2023-04-25T07:38:35;15.83;;;4.30;;
3698;SDS011;1865;50.918;7.092;2023-04-25T07:41:01;22.23;;;4.10;;
3698;SDS011;1865;50.918;7.092;2023-04-25T07:43:26;16.87;;;3.40;;
3698;SDS011;1865;50.918;7.092;2023-04-25T07:45:52;13.77;;;3.30;;
3698;SDS011;1865;50.918;7.092;2023-04-25T07:48:17;18.77;;;2.87;;
3698;SDS011;1865;50.918;7.092;2023-04-25T07:50:43;13.27;;;3.00;;
3698;SDS011;1865;50.918;7.092;2023-04-25T07:53:10;12.47;;;3.37;;
3698;SDS011;1865;50.918;7.092;2023-04-25T07:55:36;17.10;;;3.17;;
3698;SDS011;1865;50.918;7.092;2023-04-25T07:58:04;15.47;;;3.63;;
3698;SDS011;1865;50.918;7.092;2023-04-25T08:00:33;14.60;;;3.40;;
3698;SDS011;1865;50.918;7.092;2023-04-25T08:02:59;18.50;;;3.60;;
3698;SDS011;1865;50.918;7.092;2023-04-25T08:05:25;22.73;;;3.13;;
3698;SDS011;1865;50.918;7.092;2023-04-25T08:07:50;18.53;;;3.73;;
3698;SDS011;1865;50.918;7.092;2023-04-25T08:10:16;11.80;;;3.27;;
3698;SDS011;1865;50.918;7.092;2023-04-25T08:12:41;21.10;;;3.93;;
3698;SDS011;1865;50.918;7.092;2023-04-25T08:15:07;16.53;;;3.43;;
3698;SDS011;1865;50.918;7.092;2023-04-25T08:17:34;22.80;;;3.97;;
3698;SDS011;1865;50.918;7.092;2023-04-25T08:19:59;11.23;;;3.30;;
3698;SDS011;1865;50.918;7.092;2023-04-25T08:22:25;18.77;;;3.40;;
3698;SDS011;1865;50.918;7.092;2023-04-25T08:24:50;13.47;;;3.70;;
3698;SDS011;1865;50.918;7.092;2023-04-25T08:27:17;13.00;;;3.27;;
3698;SDS011;1865;50.918;7.092;2023-04-25T08:29:43;17.93;;;3.53;;
3698;SDS011;1865;50.918;7.092;2023-04-25T08:32:09;16.73;;;2.67;;
3698;SDS011;1865;50.918;7.092;2023-04-25T08:34:35;18.53;;;3.63;;
3698;SDS011;1865;50.918;7.092;2023-04-25T08:37:01;14.37;;;2.97;;
3698;SDS011;1865;50.918;7.092;2023-04-25T08:39:29;15.90;;;3.00;;
3698;SDS011;1865;50.918;7.092;2023-04-25T08:41:54;14.30;;;3.17;;
3698;SDS011;1865;50.918;7.092;2023-04-25T08:44:21;15.70;;;2.47;;
3698;SDS011;1865;50.918;7.092;2023-04-25T08:46:48;11.90;;;2.40;;
3698;SDS011;1865;50.918;7.092;2023-04-25T08:49:17;12.60;;;2.97;;
3698;SDS011;1865;50.918;7.092;2023-04-25T08:51:44;17.30;;;2.57;;
3698;SDS011;1865;50.918;7.092;2023-04-25T08:54:15;14.20;;;2.47;;
3698;SDS011;1865;50.918;7.092;2023-04-25T08:56:41;16.93;;;2.60;;
3698;SDS011;1865;50.918;7.092;2023-04-25T08:59:10;10.90;;;2.03;;
3698;SDS011;1865;50.918;7.092;2023-04-25T09:01:38;9.30;;;1.80;;
3698;SDS011;1865;50.918;7.092;2023-04-25T09:04:04;16.17;;;2.60;;
3698;SDS011;1865;50.918;7.092;2023-04-25T09:06:30;10.70;;;2.20;;
3698;SDS011;1865;50.918;7.092;2023-04-25T09:09:03;12.17;;;2.40;;
3698;SDS011;1865;50.918;7.092;2023-04-25T09:11:30;17.53;;;2.67;;
3698;SDS011;1865;50.918;7.092;2023-04-25T09:14:16;16.53;;;2.50;;
3698;SDS011;1865;50.918;7.092;2023-04-25T09:19:28;17.80;;;2.80;;
3698;SDS011;1865;50.918;7.092;2023-04-25T09:22:00;12.23;;;3.00;;
3698;SDS011;1865;50.918;7.092;2023-04-25T09:24:31;16.60;;;2.60;;
3698;SDS011;1865;50.918;7.092;2023-04-25T09:26:59;17.30;;;2.00;;
3698;SDS011;1865;50.918;7.092;2023-04-25T09:29:31;16.73;;;2.80;;
3698;SDS011;1865;50.918;7.092;2023-04-25T09:32:10;10.70;;;2.27;;
3698;SDS011;1865;50.918;7.092;2023-04-25T09:34:43;13.30;;;2.10;;
3698;SDS011;1865;50.918;7.092;2023-04-25T09:37:13;20.57;;;3.10;;
3698;SDS011;1865;50.918;7.092;2023-04-25T09:39:44;13.87;;;2.33;;
3698;SDS011;1865;50.918;7.092;2023-04-25T09:42:11;18.37;;;2.73;;
3698;SDS011;1865;50.918;7.092;2023-04-25T09:44:37;13.90;;;2.57;;
3698;SDS011;1865;50.918;7.092;2023-04-25T09:47:10;22.03;;;3.90;;
3698;SDS011;1865;50.918;7.092;2023-04-25T09:49:41;11.20;;;2.10;;
3698;SDS011;1865;50.918;7.092;2023-04-25T09:52:07;15.17;;;2.67;;
3698;SDS011;1865;50.918;7.092;2023-04-25T09:54:33;14.50;;;2.60;;
3698;SDS011;1865;50.918;7.092;2023-04-25T09:57:02;15.77;;;2.40;;
3698;SDS011;1865;50.918;7.092;2023-04-25T09:59:37;20.00;;;2.80;;
3698;SDS011;1865;50.918;7.092;2023-04-25T10:02:05;12.57;;;3.70;;
3698;SDS011;1865;50.918;7.092;2023-04-25T10:04:32;12.20;;;2.30;;
3698;SDS011;1865;50.918;7.092;2023-04-25T10:06:59;12.97;;;2.50;;
3698;SDS011;1865;50.918;7.092;2023-04-25T10:09:25;11.27;;;1.90;;
3698;SDS011;1865;50.918;7.092;2023-04-25T10:11:55;16.60;;;3.30;;
3698;SDS011;1865;50.918;7.092;2023-04-25T10:14:21;19.53;;;2.80;;
3698;SDS011;1865;50.918;7.092;2023-04-25T10:16:48;12.47;;;2.47;;
3698;SDS011;1865;50.918;7.092;2023-04-25T10:19:18;16.13;;;2.00;;
3698;SDS011;1865;50.918;7.092;2023-04-25T10:21:53;12.80;;;2.57;;
3698;SDS011;1865;50.918;7.092;2023-04-25T10:24:22;13.60;;;2.03;;
3698;SDS011;1865;50.918;7.092;2023-04-25T10:26:49;15.43;;;1.80;;
3698;SDS011;1865;50.918;7.092;2023-04-25T10:29:22;18.43;;;2.20;;
3698;SDS011;1865;50.918;7.092;2023-04-25T10:31:49;13.70;;;2.40;;
3698;SDS011;1865;50.918;7.092;2023-04-25T10:34:15;10.80;;;2.00;;
3698;SDS011;1865;50.918;7.092;2023-04-25T10:36:42;13.23;;;1.80;;
3698;SDS011;1865;50.918;7.092;2023-04-25T10:39:13;14.50;;;2.30;;
3698;SDS011;1865;50.918;7.092;2023-04-25T10:41:55;13.50;;;2.20;;
3698;SDS011;1865;50.918;7.092;2023-04-25T10:44:21;14.63;;;1.97;;
3698;SDS011;1865;50.918;7.092;2023-04-25T10:46:47;11.97;;;2.50;;
3698;SDS011;1865;50.918;7.092;2023-04-25T10:54:52;7.50;;;1.40;;
3698;SDS011;1865;50.918;7.092;2023-04-25T11:00:17;8.93;;;1.50;;
3698;SDS011;1865;50.918;7.092;2023-04-25T11:02:48;9.13;;;1.73;;
3698;SDS011;1865;50.918;7.092;2023-04-25T11:05:34;8.27;;;1.30;;
3698;SDS011;1865;50.918;7.092;2023-04-25T11:08:01;10.90;;;1.97;;
3698;SDS011;1865;50.918;7.092;2023-04-25T11:10:29;11.43;;;2.00;;
3698;SDS011;1865;50.918;7.092;2023-04-25T11:12:56;12.87;;;1.60;;
3698;SDS011;1865;50.918;7.092;2023-04-25T11:15:23;12.97;;;2.07;;
3698;SDS011;1865;50.918;7.092;2023-04-25T11:17:50;9.83;;;1.87;;
3698;SDS011;1865;50.918;7.092;2023-04-25T11:20:20;8.70;;;1.83;;
3698;SDS011;1865;50.918;7.092;2023-04-25T11:22:47;12.03;;;1.73;;
3698;SDS011;1865;50.918;7.092;2023-04-25T11:25:14;9.70;;;1.97;;
3698;SDS011;1865;50.918;7.092;2023-04-25T11:27:50;9.53;;;1.63;;
3698;SDS011;1865;50.918;7.092;2023-04-25T11:30:21;11.47;;;1.77;;
3698;SDS011;1865;50.918;7.092;2023-04-25T11:32:47;9.63;;;2.00;;
3698;SDS011;1865;50.918;7.092;2023-04-25T11:35:13;13.70;;;2.03;;
3698;SDS011;1865;50.918;7.092;2023-04-25T11:37:39;11.50;;;1.97;;
3698;SDS011;1865;50.918;7.092;2023-04-25T11:40:05;9.97;;;1.80;;
3698;SDS011;1865;50.918;7.092;2023-04-25T11:42:32;9.60;;;1.70;;
3698;SDS011;1865;50.918;7.092;2023-04-25T11:44:58;9.67;;;1.50;;
3698;SDS011;1865;50.918;7.092;2023-04-25T11:47:29;8.03;;;1.37;;
3698;SDS011;1865;50.918;7.092;2023-04-25T11:49:55;6.27;;;1.37;;
3698;SDS011;1865;50.918;7.092;2023-04-25T11:52:23;8.20;;;1.20;;
3698;SDS011;1865;50.918;7.092;2023-04-25T11:54:48;9.33;;;1.50;;
3698;SDS011;1865;50.918;7.092;2023-04-25T11:57:14;8.73;;;1.40;;
3698;SDS011;1865;50.918;7.092;2023-04-25T11:59:40;7.87;;;1.37;;
3698;SDS011;1865;50.918;7.092;2023-04-25T12:02:06;7.37;;;1.57;;
3698;SDS011;1865;50.918;7.092;2023-04-25T12:04:32;8.17;;;1.40;;
3698;SDS011;1865;50.918;7.092;2023-04-25T12:06:57;10.90;;;1.80;;
3698;SDS011;1865;50.918;7.092;2023-04-25T12:09:31;9.07;;;1.50;;
3698;SDS011;1865;50.918;7.092;2023-04-25T12:11:58;10.37;;;1.60;;
3698;SDS011;1865;50.918;7.092;2023-04-25T12:14:28;11.33;;;1.80;;
3698;SDS011;1865;50.918;7.092;2023-04-25T12:16:56;11.40;;;1.50;;
3698;SDS011;1865;50.918;7.092;2023-04-25T12:19:23;10.20;;;1.50;;
3698;SDS011;1865;50.918;7.092;2023-04-25T12:21:50;8.87;;;1.33;;
3698;SDS011;1865;50.918;7.092;2023-04-25T12:24:16;9.33;;;1.47;;
3698;SDS011;1865;50.918;7.092;2023-04-25T12:29:23;9.57;;;1.70;;
3698;SDS011;1865;50.918;7.092;2023-04-25T12:31:50;7.40;;;1.20;;
3698;SDS011;1865;50.918;7.092;2023-04-25T12:34:20;10.90;;;1.63;;
3698;SDS011;1865;50.918;7.092;2023-04-25T12:36:46;9.97;;;1.43;;
3698;SDS011;1865;50.918;7.092;2023-04-25T12:39:19;11.03;;;1.37;;
3698;SDS011;1865;50.918;7.092;2023-04-25T12:41:47;13.20;;;1.60;;
3698;SDS011;1865;50.918;7.092;2023-04-25T12:44:13;8.93;;;1.63;;
3698;SDS011;1865;50.918;7.092;2023-04-25T12:46:39;11.50;;;1.93;;
3698;SDS011;1865;50.918;7.092;2023-04-25T12:49:06;6.83;;;1.30;;
3698;SDS011;1865;50.918;7.092;2023-04-25T12:51:33;14.80;;;1.57;;
3698;SDS011;1865;50.918;7.092;2023-04-25T12:53:59;9.83;;;1.40;;
3698;SDS011;1865;50.918;7.092;2023-04-25T12:56:25;8.93;;;1.50;;
3698;SDS011;1865;50.918;7.092;2023-04-25T12:58:52;8.20;;;1.23;;
3698;SDS011;1865;50.918;7.092;2023-04-25T13:01:18;8.93;;;1.20;;
3698;SDS011;1865;50.918;7.092;2023-04-25T13:03:44;10.90;;;1.77;;
3698;SDS011;1865;50.918;7.092;2023-04-25T13:06:10;9.00;;;1.40;;
3698;SDS011;1865;50.918;7.092;2023-04-25T13:08:35;10.53;;;2.00;;
3698;SDS011;1865;50.918;7.092;2023-04-25T13:11:03;14.80;;;1.90;;
3698;SDS011;1865;50.918;7.092;2023-04-25T13:13:29;9.40;;;1.40;;
3698;SDS011;1865;50.918;7.092;2023-04-25T13:15:56;9.20;;;1.70;;
3698;SDS011;1865;50.918;7.092;2023-04-25T13:18:22;10.00;;;1.33;;
3698;SDS011;1865;50.918;7.092;2023-04-25T13:20:51;8.50;;;1.73;;
3698;SDS011;1865;50.918;7.092;2023-04-25T13:23:18;8.50;;;1.77;;
3698;SDS011;1865;50.918;7.092;2023-04-25T13:25:43;10.50;;;1.30;;
3698;SDS011;1865;50.918;7.092;2023-04-25T13:28:09;7.57;;;1.37;;
3698;SDS011;1865;50.918;7.092;2023-04-25T13:30:34;8.50;;;1.30;;
3698;SDS011;1865;50.918;7.092;2023-04-25T13:33:00;9.33;;;1.30;;
3698;SDS011;1865;50.918;7.092;2023-04-25T13:35:28;6.70;;;1.30;;
3698;SDS011;1865;50.918;7.092;2023-04-25T13:37:54;9.77;;;1.40;;
3698;SDS011;1865;50.918;7.092;2023-04-25T13:40:20;9.70;;;1.40;;
3698;SDS011;1865;50.918;7.092;2023-04-25T13:42:46;12.10;;;1.50;;
3698;SDS011;1865;50.918;7.092;2023-04-25T13:45:11;7.47;;;1.00;;
3698;SDS011;1865;50.918;7.092;2023-04-25T13:47:37;8.43;;;1.23;;
3698;SDS011;1865;50.918;7.092;2023-04-25T13:50:03;6.80;;;1.20;;
3698;SDS011;1865;50.918;7.092;2023-04-25T13:52:30;8.23;;;1.50;;
3698;SDS011;1865;50.918;7.092;2023-04-25T13:54:56;15.83;;;1.97;;
3698;SDS011;1865;50.918;7.092;2023-04-25T13:57:22;8.60;;;1.50;;
3698;SDS011;1865;50.918;7.092;2023-04-25T13:59:48;8.03;;;1.87;;
3698;SDS011;1865;50.918;7.092;2023-04-25T14:02:14;7.40;;;1.20;;
3698;SDS011;1865;50.918;7.092;2023-04-25T14:04:40;10.17;;;1.60;;
3698;SDS011;1865;50.918;7.092;2023-04-25T14:07:05;9.23;;;1.50;;
3698;SDS011;1865;50.918;7.092;2023-04-25T14:09:31;11.93;;;1.30;;
3698;SDS011;1865;50.918;7.092;2023-04-25T14:11:56;10.60;;;1.73;;
3698;SDS011;1865;50.918;7.092;2023-04-25T14:14:22;11.23;;;1.40;;
3698;SDS011;1865;50.918;7.092;2023-04-25T14:16:48;9.17;;;1.83;;
3698;SDS011;1865;50.918;7.092;2023-04-25T14:19:15;10.00;;;1.77;;
3698;SDS011;1865;50.918;7.092;2023-04-25T14:21:41;14.30;;;1.90;;
3698;SDS011;1865;50.918;7.092;2023-04-25T14:24:08;12.83;;;2.10;;
3698;SDS011;1865;50.918;7.092;2023-04-25T14:26:34;8.80;;;1.83;;
3698;SDS011;1865;50.918;7.092;2023-04-25T14:29:00;8.20;;;1.67;;
3698;SDS011;1865;50.918;7.092;2023-04-25T14:31:26;9.07;;;1.80;;
3698;SDS011;1865;50.918;7.092;2023-04-25T14:33:52;14.80;;;2.10;;
3698;SDS011;1865;50.918;7.092;2023-04-25T14:36:18;7.93;;;1.60;;
3698;SDS011;1865;50.918;7.092;2023-04-25T14:38:43;10.13;;;1.60;;
3698;SDS011;1865;50.918;7.092;2023-04-25T14:41:09;11.80;;;2.00;;
3698;SDS011;1865;50.918;7.092;2023-04-25T14:43:35;9.77;;;1.90;;
3698;SDS011;1865;50.918;7.092;2023-04-25T14:46:01;9.73;;;2.20;;
3698;SDS011;1865;50.918;7.092;2023-04-25T14:48:27;9.60;;;1.70;;
3698;SDS011;1865;50.918;7.092;2023-04-25T14:50:54;11.33;;;1.90;;
3698;SDS011;1865;50.918;7.092;2023-04-25T14:53:21;9.40;;;1.97;;
3698;SDS011;1865;50.918;7.092;2023-04-25T14:55:47;7.07;;;1.47;;
3698;SDS011;1865;50.918;7.092;2023-04-25T14:58:13;8.00;;;1.43;;
3698;SDS011;1865;50.918;7.092;2023-04-25T15:00:39;10.07;;;1.73;;
3698;SDS011;1865;50.918;7.092;2023-04-25T15:03:05;8.80;;;1.40;;
3698;SDS011;1865;50.918;7.092;2023-04-25T15:05:32;11.43;;;1.10;;
3698;SDS011;1865;50.918;7.092;2023-04-25T15:07:58;10.10;;;1.20;;
3698;SDS011;1865;50.918;7.092;2023-04-25T15:10:25;7.30;;;0.90;;
3698;SDS011;1865;50.918;7.092;2023-04-25T15:12:50;7.03;;;1.03;;
3698;SDS011;1865;50.918;7.092;2023-04-25T15:15:18;8.43;;;1.27;;